Time;durP1;ratioP1;P1;durP2;ratioP2;P2;SDS_P1;SDS_P2;PMS_P1;PMS_P2;Temp;Humidity;BMP_temperature;BMP_pressure;BME280_temperature;BME280_humidity;BME280_pressure;Samples;Min_cycle;Max_cycle;Signal;HPM_P1;HPM_P2
2022/02/01 00:01:57;;;;;;;21.80;2.83;;;;;;;3.18;80.97;102302.19;5074611;28;20356;-78
2022/02/01 00:04:39;;;;;;;18.38;2.85;;;;;;;3.17;81.34;102282.88;5074744;28;20112;-78
2022/02/01 00:07:35;;;;;;;;;;;;;;;3.18;81.84;102279.34;5074540;28;20419;-78
2022/02/01 00:13:31;;;;;;;19.20;2.95;;;;;;;3.30;81.71;102269.28;5039817;28;20037;-77
2022/02/01 00:35:13;;;;;;;13.70;3.03;;;;;;;3.22;81.44;102285.34;5074090;28;20035;-77
2022/02/01 00:37:51;;;;;;;14.45;2.20;;;;;;;3.17;81.12;102308.34;5073445;28;20381;-77
2022/02/01 00:40:17;;;;;;;27.25;3.15;;;;;;;3.15;80.03;102334.72;5073269;28;20431;-77
2022/02/01 00:42:42;;;;;;;21.92;2.20;;;;;;;3.15;78.63;102313.66;5073842;28;20032;-77
2022/02/01 00:45:07;;;;;;;20.95;2.70;;;;;;;3.17;78.24;102301.31;5072477;28;20063;-77
2022/02/01 00:47:33;;;;;;;10.65;2.38;;;;;;;3.21;77.13;102267.88;5073676;28;20030;-76
2022/02/01 00:49:58;;;;;;;22.27;2.88;;;;;;;3.29;76.29;102259.69;5073720;28;20460;-77
2022/02/01 00:52:26;;;;;;;16.98;2.22;;;;;;;3.42;76.87;102233.75;5072994;28;20068;-77
2022/02/01 00:54:51;;;;;;;15.20;2.35;;;;;;;3.49;77.82;102216.81;5073592;28;20054;-77
2022/02/01 00:57:18;;;;;;;15.18;2.10;;;;;;;3.53;77.95;102218.41;5073569;28;20029;-76
2022/02/01 00:59:43;;;;;;;16.42;2.08;;;;;;;3.58;78.18;102223.50;5072255;28;20403;-78
2022/02/01 01:02:09;;;;;;;11.38;2.17;;;;;;;3.60;78.23;102230.44;5073402;28;20032;-77
2022/02/01 01:04:34;;;;;;;16.63;2.45;;;;;;;3.60;78.57;102238.34;5073484;28;20119;-77
2022/02/01 01:07:00;;;;;;;11.00;2.28;;;;;;;3.58;78.62;102242.78;5073770;28;20032;-77
2022/02/01 01:09:25;;;;;;;11.00;2.55;;;;;;;3.56;78.65;102239.34;5073275;28;20537;-78
2022/02/01 01:11:54;;;;;;;19.27;2.13;;;;;;;3.58;78.44;102237.50;5073263;28;20032;-78
2022/02/01 01:43:53;;;;;;;15.32;2.75;;;;;;;3.85;76.68;102261.03;5072843;28;20106;-81
2022/02/01 01:54:22;;;;;;;13.32;2.10;;;;;;;3.83;76.72;102271.63;5077012;28;20043;-78
2022/02/01 01:56:48;;;;;;;20.85;3.00;;;;;;;3.86;76.77;102255.72;5076216;28;20036;-78
2022/02/01 01:59:14;;;;;;;17.83;2.50;;;;;;;3.85;76.89;102246.13;5077102;28;20436;-78
2022/02/01 02:01:41;;;;;;;18.23;3.22;;;;;;;3.82;77.29;102250.63;5076613;28;20052;-78
2022/02/01 02:04:07;;;;;;;17.85;2.58;;;;;;;3.80;77.50;102232.25;5076426;28;20043;-78
2022/02/01 02:06:33;;;;;;;20.63;2.88;;;;;;;3.79;77.90;102234.97;5077048;28;20068;-79
2022/02/01 02:09:01;;;;;;;11.20;2.75;;;;;;;3.74;78.57;102224.63;5076241;28;20075;-78
2022/02/01 02:11:51;;;;;;;13.38;3.05;;;;;;;3.71;79.03;102230.84;5076765;28;20052;-78
2022/02/01 02:14:20;;;;;;;14.35;2.92;;;;;;;3.71;78.79;102251.06;5076310;28;20025;-78
2022/02/01 02:16:56;;;;;;;17.05;2.70;;;;;;;3.73;79.11;102237.84;5076814;28;20029;-78
2022/02/01 02:19:24;;;;;;;15.05;2.42;;;;;;;3.75;79.49;102244.78;5076923;28;20046;-78
2022/02/01 02:21:55;;;;;;;14.30;2.50;;;;;;;3.78;79.43;102239.38;5075332;28;20041;-78
2022/02/01 02:24:23;;;;;;;14.18;2.83;;;;;;;3.84;79.58;102222.50;5076289;28;20028;-78
2022/02/01 02:26:49;;;;;;;15.65;3.08;;;;;;;3.84;79.23;102218.06;5074720;28;20052;-78
2022/02/01 02:29:15;;;;;;;13.32;2.53;;;;;;;3.89;78.10;102210.81;5075410;28;20409;-78
2022/02/01 02:31:41;;;;;;;11.77;2.25;;;;;;;3.95;76.91;102207.09;5075881;28;20060;-79
2022/02/01 02:34:11;;;;;;;18.88;2.78;;;;;;;3.94;77.28;102204.53;5075624;28;20385;-78
2022/02/01 02:36:43;;;;;;;13.75;2.55;;;;;;;3.97;78.36;102204.41;5075800;28;20067;-78
2022/02/01 02:39:19;;;;;;;;;;;;;;;3.98;78.68;102206.97;5076028;28;20060;-78
2022/02/01 02:47:00;;;;;;;20.67;3.85;;;;;;;4.06;79.85;102211.91;5075521;28;20097;-81
2022/02/01 02:49:26;;;;;;;13.80;2.78;;;;;;;4.09;79.94;102209.19;5075172;28;20040;-78
2022/02/01 02:51:52;;;;;;;32.15;4.28;;;;;;;4.11;80.14;102198.56;5074141;28;20325;-78
2022/02/01 02:54:23;;;;;;;15.93;2.58;;;;;;;4.08;80.32;102196.91;5075390;28;20086;-78
2022/02/01 02:56:52;;;;;;;22.10;2.80;;;;;;;4.10;79.54;102189.81;5075548;28;20032;-79
2022/02/01 02:59:18;;;;;;;12.73;2.90;;;;;;;4.12;79.78;102182.72;5075236;28;20052;-78
2022/02/01 03:01:49;;;;;;;17.60;3.63;;;;;;;4.12;79.84;102161.63;5074546;28;20035;-78
2022/02/01 03:04:19;;;;;;;17.05;2.85;;;;;;;4.12;79.44;102151.09;5075381;28;20115;-78
2022/02/01 03:06:46;;;;;;;14.13;2.97;;;;;;;4.14;79.23;102151.03;5075072;28;20028;-78
2022/02/01 03:09:12;;;;;;;17.58;2.67;;;;;;;4.18;79.23;102147.31;5074699;28;20056;-78
2022/02/01 03:11:39;;;;;;;9.95;2.10;;;;;;;4.18;79.24;102131.50;5075196;28;20044;-79
2022/02/01 03:14:18;;;;;;;12.43;2.63;;;;;;;4.14;79.67;102135.22;5074951;28;20513;-79
2022/02/01 03:21:56;;;;;;;19.15;2.50;;;;;;;4.02;80.48;102091.81;5075325;28;20067;-79
2022/02/01 03:24:22;;;;;;;19.73;3.00;;;;;;;4.06;80.62;102099.53;5073338;28;20486;-79
2022/02/01 03:26:47;;;;;;;19.63;3.47;;;;;;;4.09;80.85;102108.22;5074664;28;20028;-78
2022/02/01 03:29:13;;;;;;;17.17;3.28;;;;;;;4.11;81.29;102095.84;5075116;28;20024;-78
2022/02/01 03:31:38;;;;;;;15.45;3.17;;;;;;;4.08;81.34;102090.72;5074314;28;20461;-78
2022/02/01 03:34:03;;;;;;;16.92;3.92;;;;;;;4.05;81.88;102084.63;5074442;28;20041;-78
2022/02/01 03:36:29;;;;;;;21.20;3.50;;;;;;;4.08;82.85;102091.56;5074463;28;20063;-80
2022/02/01 03:38:54;;;;;;;21.75;3.03;;;;;;;4.08;83.15;102095.97;5074388;28;20060;-80
2022/02/01 03:41:20;;;;;;;24.48;3.67;;;;;;;4.10;84.16;102094.13;5073151;28;20456;-80
2022/02/01 03:43:46;;;;;;;24.95;3.65;;;;;;;4.10;84.86;102100.22;5074441;28;20483;-80
2022/02/01 03:46:11;;;;;;;23.80;3.53;;;;;;;4.12;85.01;102101.03;5074283;28;20090;-80
2022/02/01 03:48:36;;;;;;;23.98;3.97;;;;;;;4.15;85.69;102093.00;5074417;28;20032;-80
2022/02/01 03:51:02;;;;;;;17.70;4.50;;;;;;;4.16;86.20;102091.22;5075131;28;20037;-79
2022/02/01 03:53:27;;;;;;;23.23;4.63;;;;;;;4.19;86.53;102102.47;5073158;28;20051;-79
2022/02/01 03:55:52;;;;;;;17.77;3.42;;;;;;;4.24;86.63;102100.50;5072996;28;20036;-79
2022/02/01 03:58:18;;;;;;;16.27;3.42;;;;;;;4.27;86.85;102090.75;5074034;28;20040;-80
2022/02/01 04:00:43;;;;;;;23.52;3.58;;;;;;;4.28;87.00;102093.31;5074188;28;20465;-80
2022/02/01 04:03:09;;;;;;;19.42;4.18;;;;;;;4.30;87.30;102075.66;5072896;28;20086;-82
2022/02/01 04:05:34;;;;;;;23.00;4.25;;;;;;;4.29;87.47;102086.28;5074262;28;20060;-80
2022/02/01 04:08:00;;;;;;;22.92;4.05;;;;;;;4.34;88.07;102071.09;5072937;28;20036;-79
2022/02/01 04:10:26;;;;;;;24.83;4.47;;;;;;;4.37;88.23;102071.84;5074079;28;20052;-80
2022/02/01 04:12:52;;;;;;;34.00;5.28;;;;;;;4.38;88.22;102057.72;5073480;28;20498;-81
2022/02/01 04:15:20;;;;;;;18.75;4.03;;;;;;;4.35;88.74;102051.75;5073771;28;20095;-78
2022/02/01 04:17:47;;;;;;;25.15;4.75;;;;;;;4.31;88.78;102047.53;5074730;28;20437;-78
2022/02/01 04:20:12;;;;;;;22.02;4.35;;;;;;;4.32;89.54;102049.25;5073999;28;20032;-81
2022/02/01 04:22:38;;;;;;;21.25;4.55;;;;;;;4.32;89.65;102052.72;5074063;28;20028;-79
2022/02/01 04:25:04;;;;;;;23.55;4.70;;;;;;;4.33;89.70;102050.94;5073794;28;20032;-78
2022/02/01 04:27:32;;;;;;;22.95;4.93;;;;;;;4.28;89.71;102043.25;5074546;28;20396;-78
2022/02/01 04:30:06;;;;;;;18.75;4.75;;;;;;;4.26;90.00;102045.09;5056961;28;20526;-78
2022/02/01 04:32:42;;;;;;;22.15;5.28;;;;;;;4.28;90.37;102037.13;5074055;28;20024;-78
2022/02/01 04:35:14;;;;;;;22.23;5.72;;;;;;;4.27;90.43;102030.13;5074212;28;20029;-78
2022/02/01 04:37:40;;;;;;;20.90;5.57;;;;;;;4.27;90.69;102033.66;5074102;28;20040;-78
2022/02/01 04:40:10;;;;;;;29.05;5.38;;;;;;;4.28;91.09;102018.69;5072771;28;20074;-79
2022/02/01 04:42:37;;;;;;;29.02;5.07;;;;;;;4.30;91.11;102030.00;5073957;28;20051;-78
2022/02/01 04:45:04;;;;;;;19.48;5.30;;;;;;;4.32;90.95;102028.16;5073490;28;20090;-78
2022/02/01 04:47:33;;;;;;;33.15;5.20;;;;;;;4.32;91.24;102015.00;5074131;28;20028;-78
2022/02/01 04:50:06;;;;;;;33.72;5.82;;;;;;;4.31;91.46;102014.13;5072328;28;20387;-78
2022/02/01 04:52:32;;;;;;;21.70;5.90;;;;;;;4.34;91.63;102002.59;5073103;28;20047;-78
2022/02/01 04:54:58;;;;;;;19.52;5.30;;;;;;;4.34;91.59;101998.16;5073215;28;20449;-78
2022/02/01 04:57:24;;;;;;;28.40;5.50;;;;;;;4.38;91.78;101986.56;5072554;28;20112;-78
2022/02/01 04:59:50;;;;;;;24.40;4.75;;;;;;;4.41;92.01;101985.59;5073424;28;20384;-78
2022/02/01 05:02:15;;;;;;;25.83;5.65;;;;;;;4.44;92.25;101971.41;5073473;28;20033;-80
2022/02/01 05:04:41;;;;;;;25.38;5.80;;;;;;;4.45;92.63;101955.53;5072823;28;20059;-78
2022/02/01 05:07:06;;;;;;;29.90;5.75;;;;;;;4.44;92.89;101958.25;5073189;28;20029;-78
2022/02/01 05:09:32;;;;;;;20.33;5.72;;;;;;;4.43;93.52;101954.72;5072956;28;20131;-78
2022/02/01 05:12:01;;;;;;;19.63;5.70;;;;;;;4.47;93.88;101943.13;5073739;28;20020;-79
2022/02/01 05:14:28;;;;;;;21.77;5.70;;;;;;;4.49;94.22;101943.03;5073045;28;20048;-79
2022/02/01 05:19:35;;;;;;;21.52;6.60;;;;;;;4.51;95.63;101926.25;5073022;28;20049;-81
2022/02/01 05:22:07;;;;;;;31.50;7.67;;;;;;;4.50;95.83;101924.53;5072794;28;20060;-78
2022/02/01 05:24:36;;;;;;;28.42;7.22;;;;;;;4.52;96.34;101930.59;5072710;28;20036;-78
2022/02/01 05:27:04;;;;;;;31.60;7.80;;;;;;;4.54;96.46;101934.00;5076270;28;20036;-78
2022/02/01 05:29:29;;;;;;;32.53;7.82;;;;;;;4.58;96.72;101926.78;5076813;28;20016;-79
2022/02/01 05:31:58;;;;;;;23.33;7.85;;;;;;;4.57;97.02;101914.56;5076568;28;20035;-80
2022/02/01 05:34:23;;;;;;;27.45;7.15;;;;;;;4.58;97.06;101905.69;5076621;28;20143;-81
2022/02/01 05:36:49;;;;;;;23.77;7.03;;;;;;;4.57;97.30;101915.41;5077044;28;20461;-80
2022/02/01 05:39:19;;;;;;;19.23;6.10;;;;;;;4.59;97.30;101924.06;5076886;28;20036;-78
2022/02/01 05:41:45;;;;;;;29.90;6.73;;;;;;;4.58;97.42;101913.59;5076584;28;20349;-78
2022/02/01 05:44:12;;;;;;;17.35;5.68;;;;;;;4.57;97.65;101883.78;5076579;28;20275;-77
2022/02/01 05:46:38;;;;;;;26.25;6.47;;;;;;;4.55;97.79;101885.63;5076483;28;20559;-77
2022/02/01 05:49:05;;;;;;;24.35;6.55;;;;;;;4.59;97.96;101862.59;5076420;28;20028;-80
2022/02/01 05:51:31;;;;;;;22.20;7.60;;;;;;;4.59;98.41;101868.72;5076051;28;20032;-79
2022/02/01 05:53:56;;;;;;;25.60;7.43;;;;;;;4.59;98.32;101879.25;5058420;28;20035;-79
2022/02/01 05:56:22;;;;;;;23.83;6.40;;;;;;;4.59;98.58;101874.00;5076702;28;20583;-79
2022/02/01 05:58:47;;;;;;;25.23;6.03;;;;;;;4.62;98.79;101874.78;5076077;28;20025;-79
2022/02/01 06:01:13;;;;;;;19.42;5.90;;;;;;;4.62;98.84;101877.44;5058272;28;20380;-78
2022/02/01 06:03:38;;;;;;;29.60;6.47;;;;;;;4.66;99.04;101886.88;5076193;28;20036;-79
2022/02/01 06:06:04;;;;;;;28.67;5.95;;;;;;;4.65;99.28;101874.63;5075111;28;20041;-80
2022/02/01 06:08:30;;;;;;;24.08;5.53;;;;;;;4.62;99.22;101873.00;5076151;28;20044;-80
2022/02/01 06:10:56;;;;;;;21.55;5.57;;;;;;;4.63;99.71;101855.38;5076533;28;20045;-78
2022/02/01 06:13:21;;;;;;;22.00;4.90;;;;;;;4.59;99.97;101859.97;5075824;28;20520;-79
2022/02/01 06:15:47;;;;;;;20.67;4.90;;;;;;;4.59;100.00;101863.44;5075432;28;20037;-85
2022/02/01 06:18:12;;;;;;;28.83;5.00;;;;;;;4.62;100.00;101853.69;5076278;28;20115;-84
2022/02/01 06:20:38;;;;;;;25.73;5.28;;;;;;;4.62;100.00;101851.91;5076948;28;20056;-83
2022/02/01 06:23:14;;;;;;;20.67;4.78;;;;;;;4.66;100.00;101844.69;5058695;28;20060;-83
2022/02/01 06:28:05;;;;;;;31.60;4.82;;;;;;;4.73;100.00;101841.69;5077828;28;20044;-82
2022/02/01 06:30:30;;;;;;;28.40;4.55;;;;;;;4.78;100.00;101836.19;5075573;28;20031;-84
2022/02/01 06:32:56;;;;;;;22.63;4.90;;;;;;;4.81;100.00;101832.53;5077031;28;20037;-84
2022/02/01 06:35:22;;;;;;;21.15;4.80;;;;;;;4.84;100.00;101827.97;5058593;28;20461;-80
2022/02/01 06:37:48;;;;;;;26.98;4.82;;;;;;;4.88;100.00;101833.91;5074987;28;20437;-81
2022/02/01 06:40:14;;;;;;;23.48;4.57;;;;;;;4.91;100.00;101839.03;5075192;28;20039;-81
2022/02/01 06:42:40;;;;;;;23.58;4.10;;;;;;;4.92;100.00;101832.84;5076111;28;20037;-81
2022/02/01 06:45:06;;;;;;;25.65;4.28;;;;;;;4.93;100.00;101818.72;5076440;28;20460;-82
2022/02/01 06:47:31;;;;;;;22.92;4.85;;;;;;;4.94;100.00;101813.38;5075124;28;20033;-78
2022/02/01 06:49:56;;;;;;;21.38;3.75;;;;;;;4.97;100.00;101814.13;5075687;28;20032;-78
2022/02/01 06:52:22;;;;;;;17.60;3.75;;;;;;;4.92;100.00;101809.09;5075907;28;20461;-87
2022/02/01 06:54:48;;;;;;;17.85;3.75;;;;;;;4.89;100.00;101806.63;5077928;28;20037;-83
2022/02/01 06:57:13;;;;;;;13.35;3.33;;;;;;;4.86;100.00;101797.06;5074339;28;20025;-85
2022/02/01 06:59:38;;;;;;;12.88;3.33;;;;;;;4.85;100.00;101791.88;5076041;28;20464;-81
2022/02/01 07:02:04;;;;;;;11.55;3.08;;;;;;;4.82;100.00;101798.19;5075154;28;20073;-81
2022/02/01 07:04:30;;;;;;;12.30;2.85;;;;;;;4.80;100.00;101807.94;5075270;28;20060;-81
2022/02/01 07:06:56;;;;;;;13.68;3.75;;;;;;;4.80;100.00;101796.56;5073977;28;20055;-83
2022/02/01 07:09:22;;;;;;;11.48;3.20;;;;;;;4.79;100.00;101793.03;5075774;28;20032;-85
2022/02/01 07:11:48;;;;;;;8.65;3.30;;;;;;;4.77;100.00;101785.22;5075791;28;20396;-78
2022/02/01 07:14:13;;;;;;;9.32;2.97;;;;;;;4.77;100.00;101790.50;5073977;28;20035;-76
2022/02/01 07:16:39;;;;;;;5.70;2.53;;;;;;;4.77;100.00;101789.66;5074092;28;20037;-79
2022/02/01 07:19:04;;;;;;;6.43;2.95;;;;;;;4.76;100.00;101772.09;5074633;28;20036;-79
2022/02/01 07:21:29;;;;;;;9.25;2.90;;;;;;;4.75;100.00;101781.81;5074114;28;20518;-78
2022/02/01 07:23:56;;;;;;;9.80;3.08;;;;;;;4.75;100.00;101783.59;5074993;28;20044;-78
2022/02/01 07:26:22;;;;;;;9.27;2.83;;;;;;;4.76;100.00;101775.63;5073507;28;20401;-78
2022/02/01 07:28:48;;;;;;;9.30;3.40;;;;;;;4.77;100.00;101766.75;5074846;28;20037;-80
2022/02/01 07:31:13;;;;;;;8.52;3.33;;;;;;;4.81;100.00;101761.31;5074685;28;20043;-80
2022/02/01 07:33:39;;;;;;;10.68;3.10;;;;;;;4.80;100.00;101762.28;5074668;28;20085;-78
2022/02/01 07:36:06;;;;;;;11.15;3.30;;;;;;;4.80;100.00;101749.09;5074328;28;20473;-79
2022/02/01 07:38:31;;;;;;;10.05;3.72;;;;;;;4.80;100.00;101744.66;5074629;28;20043;-81
2022/02/01 07:40:58;;;;;;;11.73;4.00;;;;;;;4.83;100.00;101739.22;5074301;28;20025;-78
2022/02/01 07:43:30;;;;;;;11.10;3.75;;;;;;;4.86;100.00;101752.25;5074323;28;20124;-80
2022/02/01 07:46:04;;;;;;;16.40;3.90;;;;;;;4.88;100.00;101750.41;5074714;28;20476;-82
2022/02/01 07:48:29;;;;;;;15.60;4.22;;;;;;;4.91;100.00;101742.31;5074286;28;20025;-84
2022/02/01 07:50:55;;;;;;;13.55;4.20;;;;;;;4.90;100.00;101731.88;5074366;28;20116;-83
2022/02/01 07:53:20;;;;;;;15.85;3.80;;;;;;;4.91;100.00;101730.91;5074169;28;20530;-81
2022/02/01 07:55:45;;;;;;;17.40;4.07;;;;;;;4.92;100.00;101730.81;5072852;28;20072;-83
2022/02/01 07:58:11;;;;;;;25.15;4.43;;;;;;;4.94;100.00;101725.47;5073353;28;20115;-82
2022/02/01 08:00:36;;;;;;;19.10;4.68;;;;;;;4.94;100.00;101734.25;5074138;28;20058;-78
2022/02/01 08:03:02;;;;;;;23.58;4.30;;;;;;;4.97;100.00;101735.00;5074030;28;20037;-79
2022/02/01 08:05:30;;;;;;;28.17;4.38;;;;;;;4.99;100.00;101726.09;5073976;28;20090;-77
2022/02/01 08:07:58;;;;;;;22.73;4.88;;;;;;;5.01;100.00;101710.19;5073711;28;20029;-77
2022/02/01 08:10:27;;;;;;;25.50;4.43;;;;;;;5.03;100.00;101697.75;5072493;28;20393;-76
2022/02/01 08:20:37;;;;;;;24.52;4.63;;;;;;;5.05;100.00;101702.03;5073436;28;20047;-77
2022/02/01 08:23:03;;;;;;;;;;;;;;;5.07;100.00;101707.22;5074101;28;20040;-75
2022/02/01 08:25:33;;;;;;;30.02;5.20;;;;;;;5.06;100.00;101706.38;5073308;28;20011;-76
2022/02/01 08:28:04;;;;;;;17.90;4.60;;;;;;;5.08;100.00;101696.59;5073096;28;20032;-75
2022/02/01 08:30:30;;;;;;;17.27;4.18;;;;;;;5.10;100.00;101693.84;5073305;28;20521;-76
2022/02/01 08:32:56;;;;;;;12.25;3.38;;;;;;;5.09;100.00;101684.22;5072715;28;20480;-76
2022/02/01 08:35:22;;;;;;;23.90;4.38;;;;;;;5.08;100.00;101696.59;5072881;28;20033;-80
2022/02/01 08:37:47;;;;;;;19.33;4.40;;;;;;;5.10;100.00;101670.97;5071534;28;20032;-78
2022/02/01 08:40:16;;;;;;;17.20;4.15;;;;;;;5.13;100.00;101651.47;5073898;28;20107;-78
2022/02/01 08:42:41;;;;;;;14.43;3.88;;;;;;;5.11;100.00;101643.66;5073489;28;20033;-77
2022/02/01 08:45:09;;;;;;;22.58;5.00;;;;;;;5.15;100.00;101651.41;5073322;28;20044;-79
2022/02/01 08:47:34;;;;;;;25.38;4.82;;;;;;;5.14;100.00;101652.34;5073894;28;20043;-79
2022/02/01 08:49:59;;;;;;;18.27;5.03;;;;;;;5.15;100.00;101639.06;5055249;28;20465;-76
2022/02/01 08:52:38;;;;;;;17.45;4.80;;;;;;;5.17;100.00;101655.66;5073417;28;20032;-75
2022/02/01 08:55:06;;;;;;;23.92;5.20;;;;;;;5.19;100.00;101643.22;5073122;28;20047;-76
2022/02/01 08:57:32;;;;;;;13.77;4.07;;;;;;;5.21;100.00;101632.59;5073117;28;20136;-75
2022/02/01 09:00:04;;;;;;;19.35;4.95;;;;;;;5.23;100.00;101630.72;5076508;28;20468;-74
2022/02/01 09:02:30;;;;;;;19.85;5.25;;;;;;;5.23;100.00;101623.66;5078882;28;20035;-76
2022/02/01 09:04:56;;;;;;;27.05;6.30;;;;;;;5.23;100.00;101628.09;5078718;28;20032;-78
2022/02/01 09:07:23;;;;;;;26.05;5.95;;;;;;;5.25;100.00;101650.81;5079871;28;20032;-78
2022/02/01 09:09:48;;;;;;;22.85;6.30;;;;;;;5.27;100.00;101627.00;5079730;28;20499;-77
2022/02/01 09:12:15;;;;;;;29.67;5.68;;;;;;;5.25;100.00;101621.78;5080167;28;20033;-79
2022/02/01 09:14:42;;;;;;;20.50;5.78;;;;;;;5.26;100.00;101615.56;5078737;28;20039;-75
2022/02/01 09:17:07;;;;;;;29.40;6.15;;;;;;;5.31;100.00;101607.41;5079670;28;20028;-76
2022/02/01 09:19:33;;;;;;;24.35;6.05;;;;;;;5.33;100.00;101580.91;5079760;28;20037;-75
2022/02/01 09:22:01;;;;;;;23.52;5.65;;;;;;;5.36;100.00;101555.22;5080173;28;20095;-75
2022/02/01 09:24:29;;;;;;;30.60;6.15;;;;;;;5.39;100.00;101547.13;5079673;28;20039;-81
2022/02/01 09:26:55;;;;;;;32.30;6.68;;;;;;;5.46;100.00;101552.88;5079482;28;20487;-77
2022/02/01 09:29:21;;;;;;;29.70;6.18;;;;;;;5.51;100.00;101550.84;5079680;28;20028;-78
2022/02/01 09:31:50;;;;;;;29.55;5.75;;;;;;;5.52;100.00;101565.72;5079328;28;20040;-78
2022/02/01 09:34:17;;;;;;;31.30;6.10;;;;;;;5.51;100.00;101548.22;5079581;28;20067;-78
2022/02/01 09:36:42;;;;;;;49.25;7.55;;;;;;;5.51;100.00;101545.56;5079662;28;20036;-76
2022/02/01 09:39:08;;;;;;;39.72;6.00;;;;;;;5.53;100.00;101548.97;5079476;28;20040;-79
2022/02/01 09:41:37;;;;;;;36.78;6.35;;;;;;;5.54;100.00;101531.31;5079783;28;20424;-78
2022/02/01 09:44:03;;;;;;;35.97;6.65;;;;;;;5.56;100.00;101530.31;5079367;28;20040;-77
2022/02/01 09:46:30;;;;;;;26.63;6.78;;;;;;;5.58;100.00;101535.50;5079617;28;20032;-75
2022/02/01 09:48:56;;;;;;;38.33;6.80;;;;;;;5.61;100.00;101537.94;5079659;28;20074;-78
2022/02/01 09:51:21;;;;;;;36.47;6.78;;;;;;;5.67;100.00;101542.03;5079434;28;20032;-78
2022/02/01 09:53:47;;;;;;;29.50;6.00;;;;;;;5.66;100.00;101514.78;5079365;28;20036;-78
2022/02/01 09:56:15;;;;;;;29.85;7.13;;;;;;;5.71;100.00;101511.88;5079084;28;20136;-77
2022/02/01 09:58:41;;;;;;;30.38;7.00;;;;;;;5.74;100.00;101519.59;5079753;28;20032;-78
2022/02/01 10:01:20;;;;;;;45.78;7.78;;;;;;;5.76;100.00;101528.28;5079340;28;20032;-78
2022/02/01 10:03:58;;;;;;;28.52;6.47;;;;;;;5.81;100.00;101528.88;5078482;28;20029;-78
2022/02/01 10:06:32;;;;;;;33.92;6.75;;;;;;;5.83;100.00;101517.25;5079338;28;20111;-77
2022/02/01 10:09:06;;;;;;;31.63;6.57;;;;;;;5.87;100.00;101532.91;5079630;28;20031;-76
2022/02/01 10:11:43;;;;;;;35.70;7.28;;;;;;;5.87;100.00;101523.22;5076490;28;20032;-77
2022/02/01 10:14:13;;;;;;;27.90;5.97;;;;;;;5.90;100.00;101538.03;5076117;28;20025;-74
2022/02/01 10:16:52;;;;;;;25.50;5.90;;;;;;;5.89;100.00;101547.72;5076740;28;20028;-79
2022/02/01 10:19:18;;;;;;;36.17;6.35;;;;;;;5.93;100.00;101543.97;5076481;28;20073;-78
2022/02/01 10:21:52;;;;;;;32.80;6.60;;;;;;;5.97;100.00;101529.69;5075860;28;20025;-79
2022/02/01 10:24:39;;;;;;;35.45;6.55;;;;;;;6.03;100.00;101524.94;5075821;28;20035;-77
2022/02/01 10:27:17;;;;;;;25.42;5.47;;;;;;;6.04;100.00;101527.50;5075876;28;20098;-77
2022/02/01 10:35:23;;;;;;;34.95;6.78;;;;;;;6.12;100.00;101535.84;5075940;28;20530;-77
2022/02/01 10:38:18;;;;;;;33.72;5.90;;;;;;;6.15;100.00;101540.94;5074555;28;20487;-76
2022/02/01 10:40:52;;;;;;;38.70;5.95;;;;;;;6.19;100.00;101538.94;5073326;28;20052;-75
2022/02/01 10:43:19;;;;;;;26.55;5.75;;;;;;;6.22;100.00;101530.81;5075029;28;20395;-81
2022/02/01 10:45:45;;;;;;;36.58;5.50;;;;;;;6.25;100.00;101533.28;5075431;28;20058;-76
2022/02/01 10:48:24;;;;;;;42.45;6.22;;;;;;;6.31;100.00;101537.34;5075305;28;20035;-78
2022/02/01 10:51:04;;;;;;;38.67;6.25;;;;;;;6.37;100.00;101531.66;5075467;28;20032;-78
2022/02/01 10:53:30;;;;;;;32.25;5.10;;;;;;;6.44;100.00;101529.50;5075885;28;20024;-79
2022/02/01 10:55:57;;;;;;;27.88;4.68;;;;;;;6.52;100.00;101530.72;5075363;28;20115;-79
2022/02/01 10:58:22;;;;;;;21.25;4.65;;;;;;;6.63;100.00;101531.84;5075868;28;20651;-77
2022/02/01 11:00:48;;;;;;;24.85;4.53;;;;;;;6.72;99.54;101539.22;5073669;28;20041;-77
2022/02/01 11:03:15;;;;;;;25.13;5.25;;;;;;;6.77;99.22;101529.16;5075269;28;20039;-78
2022/02/01 11:05:45;;;;;;;22.52;4.25;;;;;;;6.80;98.87;101544.84;5074835;28;20519;-76
2022/02/01 11:08:14;;;;;;;31.50;5.40;;;;;;;6.84;98.66;101529.66;5075169;28;20453;-77
2022/02/01 11:10:48;;;;;;;19.90;4.60;;;;;;;6.87;98.43;101535.56;5075701;28;20045;-77
2022/02/01 11:13:14;;;;;;;24.67;5.10;;;;;;;6.90;98.24;101550.41;5073589;28;20111;-76
2022/02/01 11:15:40;;;;;;;24.73;4.75;;;;;;;6.93;97.69;101526.41;5073614;28;20067;-77
2022/02/01 11:18:10;;;;;;;20.73;4.53;;;;;;;6.92;97.65;101527.34;5075571;28;20469;-78
2022/02/01 11:20:36;;;;;;;30.75;5.32;;;;;;;6.93;97.51;101523.75;5074968;28;20040;-78
2022/02/01 11:23:20;;;;;;;26.77;6.18;;;;;;;6.92;97.52;101531.78;5073515;28;20033;-76
2022/02/01 11:25:50;;;;;;;26.40;4.53;;;;;;;6.92;97.33;101534.44;5075300;28;20453;-76
2022/02/01 11:28:58;;;;;;;22.10;4.55;;;;;;;6.91;97.65;101548.59;5074810;28;20028;-76
2022/02/01 11:31:31;;;;;;;36.03;6.53;;;;;;;6.91;97.63;101530.09;5074706;28;20054;-78
2022/02/01 11:33:57;;;;;;;22.05;4.95;;;;;;;6.92;97.59;101511.47;5074802;28;20029;-83
2022/02/01 11:36:22;;;;;;;25.33;5.43;;;;;;;6.96;98.03;101502.41;5074470;28;20508;-77
2022/02/01 11:38:58;;;;;;;23.58;4.45;;;;;;;7.03;97.40;101485.19;5074746;28;20124;-77
2022/02/01 11:41:36;;;;;;;27.95;5.53;;;;;;;7.09;97.10;101469.84;5074433;28;20024;-77
2022/02/01 11:44:21;;;;;;;25.58;4.85;;;;;;;7.10;96.81;101472.38;5074709;28;20032;-77
2022/02/01 11:47:07;;;;;;;21.63;6.30;;;;;;;7.17;96.66;101484.25;5075235;28;20102;-74
2022/02/01 11:49:33;;;;;;;30.90;5.43;;;;;;;7.22;96.69;101450.38;5074338;28;20028;-78
2022/02/01 11:52:10;;;;;;;21.00;4.43;;;;;;;7.35;96.42;101441.63;5074478;28;20039;-78
2022/02/01 11:54:36;;;;;;;24.05;4.57;;;;;;;7.46;95.80;101457.63;5074964;28;20028;-79
2022/02/01 11:57:15;;;;;;;25.00;4.95;;;;;;;7.54;95.08;101457.97;5074290;28;20465;-78
2022/02/01 12:00:13;;;;;;;27.58;4.45;;;;;;;7.54;94.65;101444.72;5073504;28;20028;-78
2022/02/01 12:02:41;;;;;;;22.60;4.63;;;;;;;7.54;94.17;101457.97;5029845;28;20115;-79
2022/02/01 12:05:14;;;;;;;23.33;4.55;;;;;;;7.54;94.25;101471.22;5074768;28;20040;-76
2022/02/01 12:07:53;;;;;;;21.55;3.90;;;;;;;7.51;94.31;101457.31;5074532;28;20141;-78
2022/02/01 12:10:20;;;;;;;22.42;4.15;;;;;;;7.57;94.27;101448.97;5074831;28;20040;-79
2022/02/01 12:12:46;;;;;;;12.73;3.67;;;;;;;7.55;94.33;101459.69;5074937;28;20033;-79
2022/02/01 12:15:12;;;;;;;17.25;3.88;;;;;;;7.62;94.49;101448.66;5074694;28;20124;-78
2022/02/01 12:17:43;;;;;;;23.17;4.07;;;;;;;7.65;93.88;101453.75;5074361;28;20436;-79
2022/02/01 12:20:14;;;;;;;25.08;4.25;;;;;;;7.75;93.47;101442.41;5074294;28;20032;-82
2022/02/01 12:23:13;;;;;;;17.37;3.60;;;;;;;7.79;93.26;101418.34;5074003;28;20040;-77
2022/02/01 12:25:38;;;;;;;20.63;3.80;;;;;;;7.87;93.15;101448.66;5073383;28;20349;-78
2022/02/01 12:28:19;;;;;;;20.92;4.40;;;;;;;7.97;93.10;101442.72;5073722;28;20154;-78
2022/02/01 12:30:45;;;;;;;16.45;3.83;;;;;;;7.97;92.32;101448.00;5073592;28;20081;-76
2022/02/01 12:33:26;;;;;;;19.77;4.10;;;;;;;7.92;92.40;101432.44;5073365;28;20056;-79
2022/02/01 12:35:55;;;;;;;16.25;4.32;;;;;;;7.93;92.65;101432.34;5072989;28;20029;-72
2022/02/01 12:38:25;;;;;;;14.60;3.70;;;;;;;7.99;92.12;101454.91;5073512;28;20025;-78
2022/02/01 12:40:51;;;;;;;21.20;3.88;;;;;;;8.05;91.79;101443.03;5073789;28;20031;-79
2022/02/01 12:43:21;;;;;;;21.23;4.25;;;;;;;8.02;91.43;101428.19;5073350;28;20032;-77
2022/02/01 12:48:12;;;;;;;16.92;3.42;;;;;;;8.16;91.28;101416.59;5073917;28;20041;-78
2022/02/01 12:50:38;;;;;;;16.40;3.75;;;;;;;8.23;90.84;101414.38;5073257;28;20029;-79
2022/02/01 12:53:04;;;;;;;14.82;3.42;;;;;;;8.28;90.13;101420.19;5072053;28;20107;-75
2022/02/01 12:55:30;;;;;;;15.68;3.60;;;;;;;8.25;90.03;101397.38;5073252;28;20028;-80
2022/02/01 12:58:03;;;;;;;19.92;4.20;;;;;;;8.20;90.35;101382.78;5072060;28;20452;-77
2022/02/01 13:00:30;;;;;;;22.98;3.75;;;;;;;8.22;90.42;101439.19;5073628;28;20028;-80
2022/02/01 13:02:59;;;;;;;15.60;3.75;;;;;;;8.21;90.53;101389.75;5073220;28;20042;-77